createdAt,value
2019-05-18T00:00:35.546Z,5.90
2019-05-18T00:03:04.056Z,5.33
2019-05-18T00:05:32.745Z,5.83
2019-05-18T00:08:01.181Z,5.50
2019-05-18T00:10:29.593Z,6.30
2019-05-18T00:12:58.021Z,6.20
2019-05-18T00:15:26.442Z,5.00
2019-05-18T00:17:55.052Z,5.30
2019-05-18T00:20:23.458Z,6.20
2019-05-18T00:22:51.901Z,5.80
2019-05-18T00:25:20.305Z,6.23
2019-05-18T00:27:48.750Z,5.53
2019-05-18T00:30:17.302Z,6.30
2019-05-18T00:32:45.747Z,6.00
2019-05-18T00:35:16.761Z,6.03
2019-05-18T00:37:45.293Z,6.23
2019-05-18T00:40:13.902Z,6.07
2019-05-18T00:42:42.335Z,5.00
2019-05-18T00:45:10.933Z,6.07
2019-05-18T00:47:41.891Z,6.13
2019-05-18T00:50:09.857Z,6.30
2019-05-18T00:52:38.256Z,6.40
2019-05-18T00:55:08.242Z,5.27
2019-05-18T00:57:36.741Z,5.80
2019-05-18T01:00:07.178Z,5.37
2019-05-18T01:02:35.701Z,7.00
2019-05-18T01:05:08.103Z,6.80
2019-05-18T01:07:36.505Z,7.20
2019-05-18T01:10:07.304Z,5.60
2019-05-18T01:12:35.735Z,6.40
2019-05-18T01:15:06.500Z,7.07
2019-05-18T01:17:34.926Z,6.53
2019-05-18T01:20:03.551Z,6.67
2019-05-18T01:22:32.027Z,6.13
2019-05-18T01:25:00.457Z,6.20
2019-05-18T01:27:28.876Z,6.70
2019-05-18T01:29:57.328Z,6.77
2019-05-18T01:32:26.190Z,6.60
2019-05-18T01:34:54.669Z,6.63
2019-05-18T01:37:23.132Z,6.60
2019-05-18T01:39:51.634Z,7.27
2019-05-18T01:42:20.060Z,6.97
2019-05-18T01:44:48.595Z,6.80
2019-05-18T01:47:17.014Z,7.83
2019-05-18T01:49:45.455Z,6.47
2019-05-18T01:52:13.904Z,6.43
2019-05-18T01:54:42.680Z,6.87
2019-05-18T01:57:11.108Z,7.17
2019-05-18T01:59:39.525Z,7.10
2019-05-18T02:02:07.991Z,7.20
2019-05-18T02:04:36.397Z,7.80
2019-05-18T02:07:05.054Z,7.30
2019-05-18T02:09:33.456Z,7.90
2019-05-18T02:12:01.901Z,7.67
2019-05-18T02:14:30.321Z,8.40
2019-05-18T02:16:58.773Z,7.63
2019-05-18T02:19:27.190Z,7.03
2019-05-18T02:21:55.871Z,8.47
2019-05-18T02:24:24.336Z,8.40
2019-05-18T02:26:52.797Z,8.60
2019-05-18T02:29:21.260Z,8.23
2019-05-18T02:31:49.690Z,8.40
2019-05-18T02:34:18.107Z,9.40
2019-05-18T02:36:46.542Z,8.63
2019-05-18T02:39:14.973Z,8.90
2019-05-18T02:41:43.475Z,9.07
2019-05-18T02:44:11.957Z,9.20
2019-05-18T02:46:40.413Z,9.50
2019-05-18T02:49:08.814Z,9.57
2019-05-18T02:51:37.221Z,9.03
2019-05-18T02:54:05.835Z,10.50
2019-05-18T02:56:34.245Z,9.23
2019-05-18T02:59:02.741Z,9.73
2019-05-18T03:01:31.147Z,8.83
2019-05-18T03:03:59.600Z,11.13
2019-05-18T03:06:28.001Z,10.70
2019-05-18T03:08:56.440Z,9.83
2019-05-18T03:11:24.921Z,10.87
2019-05-18T03:13:53.542Z,11.07
2019-05-18T03:16:21.957Z,10.57
2019-05-18T03:19:06.950Z,11.13
2019-05-18T03:21:20.728Z,10.93
2019-05-18T03:23:49.192Z,10.53
2019-05-18T03:26:17.689Z,10.80
2019-05-18T03:28:46.145Z,10.90
2019-05-18T03:31:14.644Z,10.93
2019-05-18T03:33:43.101Z,10.77
2019-05-18T03:36:11.506Z,11.07
2019-05-18T03:38:39.966Z,10.57
2019-05-18T03:41:08.466Z,11.77
2019-05-18T03:43:36.878Z,10.97
2019-05-18T03:46:05.309Z,10.83
2019-05-18T03:48:33.736Z,11.10
2019-05-18T03:51:02.167Z,10.53
2019-05-18T03:53:30.597Z,9.47
2019-05-18T03:55:59.034Z,10.40
2019-05-18T03:58:27.530Z,10.13
2019-05-18T04:00:56.050Z,10.20
2019-05-18T04:03:25.351Z,11.07
2019-05-18T04:05:53.767Z,9.50
2019-05-18T04:08:22.178Z,9.83
2019-05-18T04:10:50.606Z,10.03
2019-05-18T04:13:19.033Z,10.90
2019-05-18T04:15:47.458Z,10.47
2019-05-18T04:18:15.893Z,9.80
2019-05-18T04:20:44.391Z,10.83
2019-05-18T04:23:12.823Z,8.37
2019-05-18T04:25:43.710Z,10.97
2019-05-18T04:28:11.389Z,11.30
2019-05-18T04:30:39.831Z,9.70
2019-05-18T04:33:08.245Z,10.37
2019-05-18T04:35:36.683Z,10.53
2019-05-18T04:38:05.136Z,8.97
2019-05-18T04:40:33.564Z,10.40
2019-05-18T04:43:01.994Z,11.40
2019-05-18T04:45:30.445Z,9.63
2019-05-18T04:47:58.864Z,9.73
2019-05-18T04:50:27.356Z,9.50
2019-05-18T04:52:55.784Z,10.47
2019-05-18T04:55:24.189Z,9.87
2019-05-18T04:57:52.622Z,10.07
2019-05-18T05:00:21.214Z,9.77
2019-05-18T05:02:49.645Z,11.00
2019-05-18T05:05:18.068Z,10.30
2019-05-18T05:07:46.497Z,10.20
2019-05-18T05:10:14.996Z,9.10
2019-05-18T05:12:50.524Z,10.00
2019-05-18T05:15:19.004Z,10.70
2019-05-18T05:17:47.491Z,10.47
2019-05-18T05:20:19.775Z,11.27
2019-05-18T05:22:46.209Z,10.30
2019-05-18T05:25:14.618Z,10.37
2019-05-18T05:27:43.062Z,11.03
2019-05-18T05:30:11.834Z,11.20
2019-05-18T05:32:40.329Z,10.23
2019-05-18T05:35:08.892Z,11.10
2019-05-18T05:37:37.396Z,12.00
2019-05-18T05:40:07.071Z,11.87
2019-05-18T05:42:35.526Z,12.10
2019-05-18T05:45:05.989Z,12.70
2019-05-18T05:47:34.400Z,11.83
2019-05-18T05:50:02.941Z,12.87
2019-05-18T05:52:31.432Z,12.53
2019-05-18T05:54:59.918Z,12.17
2019-05-18T05:57:28.341Z,11.97
2019-05-18T05:59:56.840Z,11.20
2019-05-18T06:02:25.272Z,9.83
2019-05-18T06:04:53.709Z,9.10
2019-05-18T06:07:22.210Z,10.90
2019-05-18T06:09:50.650Z,9.43
2019-05-18T06:12:19.120Z,9.87
2019-05-18T06:14:47.569Z,9.13
2019-05-18T06:17:15.971Z,9.67
2019-05-18T06:19:44.413Z,9.53
2019-05-18T06:22:12.811Z,8.93
2019-05-18T06:24:41.274Z,8.57
2019-05-18T06:27:09.686Z,8.30
2019-05-18T06:29:38.117Z,9.20
2019-05-18T06:32:06.524Z,8.77
2019-05-18T06:34:34.991Z,8.17
2019-05-18T06:37:03.484Z,7.90
2019-05-18T06:39:31.962Z,7.33
2019-05-18T06:42:00.424Z,8.13
2019-05-18T06:44:28.859Z,8.50
2019-05-18T06:46:57.360Z,7.00
2019-05-18T06:49:25.769Z,7.90
2019-05-18T06:51:54.277Z,7.20
2019-05-18T06:54:22.801Z,8.43
2019-05-18T06:56:52.966Z,7.83
2019-05-18T06:59:21.818Z,7.70
2019-05-18T07:01:50.275Z,8.90
2019-05-18T07:04:18.763Z,8.50
2019-05-18T07:06:47.288Z,8.30
2019-05-18T07:09:15.690Z,8.30
2019-05-18T07:11:44.144Z,7.73
2019-05-18T07:14:24.973Z,9.50
2019-05-18T07:16:42.802Z,8.40
2019-05-18T07:19:11.196Z,8.40
2019-05-18T07:21:39.637Z,8.50
2019-05-18T07:24:08.161Z,10.73
2019-05-18T07:26:36.588Z,7.10
2019-05-18T07:29:05.868Z,8.93
2019-05-18T07:31:34.508Z,9.37
2019-05-18T07:34:02.926Z,9.17
2019-05-18T07:36:31.380Z,8.90
2019-05-18T07:38:59.801Z,8.10
2019-05-18T07:41:28.284Z,10.40
2019-05-18T07:43:56.725Z,10.90
2019-05-18T07:46:25.161Z,9.47
2019-05-18T07:48:53.693Z,9.90
2019-05-18T07:51:35.091Z,10.27
2019-05-18T07:53:52.258Z,10.10
2019-05-18T07:56:20.782Z,10.67
2019-05-18T07:58:49.265Z,11.23
2019-05-18T08:01:17.727Z,10.33
2019-05-18T08:03:46.161Z,10.37
2019-05-18T08:06:14.569Z,11.50
2019-05-18T08:08:43.018Z,12.10
2019-05-18T08:11:11.517Z,11.00
2019-05-18T08:13:39.957Z,9.53
2019-05-18T08:16:08.391Z,11.43
2019-05-18T08:18:36.846Z,9.67
2019-05-18T08:21:05.262Z,11.33
2019-05-18T08:23:33.791Z,11.97
2019-05-18T08:26:02.277Z,11.40
2019-05-18T08:28:30.734Z,10.30
2019-05-18T08:30:59.207Z,12.10
2019-05-18T08:33:27.674Z,10.23
2019-05-18T08:35:56.176Z,10.43
2019-05-18T08:38:24.728Z,11.27
2019-05-18T08:40:53.145Z,10.70
2019-05-18T08:43:21.594Z,11.60
2019-05-18T08:45:50.061Z,13.60
2019-05-18T08:48:18.517Z,11.80
2019-05-18T08:50:46.935Z,12.27
2019-05-18T08:53:15.457Z,13.00
2019-05-18T08:55:43.956Z,13.80
2019-05-18T08:58:12.378Z,11.40
2019-05-18T09:00:40.805Z,10.80
2019-05-18T09:03:09.233Z,10.77
2019-05-18T09:05:37.760Z,10.60
2019-05-18T09:08:06.263Z,9.90
2019-05-18T09:10:34.841Z,10.80
2019-05-18T09:13:03.282Z,10.40
2019-05-18T09:15:31.721Z,12.00
2019-05-18T09:18:00.150Z,10.80
2019-05-18T09:20:28.577Z,10.50
2019-05-18T09:22:56.996Z,10.80
2019-05-18T09:25:25.479Z,12.23
2019-05-18T09:27:53.905Z,9.53
2019-05-18T09:30:22.579Z,10.17
2019-05-18T09:32:51.002Z,10.33
2019-05-18T09:35:19.505Z,9.77
2019-05-18T09:37:47.929Z,9.20
2019-05-18T09:40:16.431Z,9.83
2019-05-18T09:42:44.855Z,11.30
2019-05-18T09:45:14.065Z,10.83
2019-05-18T09:47:42.592Z,13.03
2019-05-18T09:50:11.136Z,9.50
2019-05-18T09:52:45.374Z,8.27
2019-05-18T09:55:10.077Z,10.43
2019-05-18T09:57:38.551Z,8.77
2019-05-18T10:00:09.491Z,9.67
2019-05-18T10:02:37.992Z,10.30
2019-05-18T10:05:06.858Z,9.93
2019-05-18T10:07:35.391Z,10.53
2019-05-18T10:10:06.745Z,10.60
2019-05-18T10:12:35.314Z,11.50
2019-05-18T10:15:05.716Z,10.37
2019-05-18T10:17:34.152Z,11.33
2019-05-18T10:20:03.041Z,10.90
2019-05-18T10:22:31.510Z,9.67
2019-05-18T10:24:59.978Z,10.03
2019-05-18T10:27:28.686Z,9.20
2019-05-18T10:29:57.305Z,10.40
2019-05-18T10:32:26.888Z,8.57
2019-05-18T10:34:55.400Z,7.93
2019-05-18T10:37:23.975Z,8.90
2019-05-18T10:39:52.403Z,8.50
2019-05-18T10:42:20.887Z,11.10
2019-05-18T10:44:49.293Z,10.90
2019-05-18T10:47:17.761Z,8.93
2019-05-18T10:49:46.181Z,7.33
2019-05-18T10:52:14.655Z,9.70
2019-05-18T10:54:43.158Z,7.27
2019-05-18T10:57:11.719Z,8.53
2019-05-18T10:59:40.137Z,8.97
2019-05-18T11:02:08.659Z,8.50
2019-05-18T11:04:37.174Z,9.00
2019-05-18T11:07:05.695Z,8.20
2019-05-18T11:09:34.137Z,8.40
2019-05-18T11:12:02.621Z,7.53
2019-05-18T11:14:31.058Z,7.57
2019-05-18T11:16:59.546Z,7.77
2019-05-18T11:19:28.011Z,8.60
2019-05-18T11:21:56.508Z,7.23
2019-05-18T11:24:24.961Z,7.40
2019-05-18T11:26:53.398Z,6.73
2019-05-18T11:29:23.817Z,7.23
2019-05-18T11:31:52.174Z,6.80
2019-05-18T11:34:20.606Z,6.87
2019-05-18T11:36:49.033Z,6.90
2019-05-18T11:39:17.470Z,7.03
2019-05-18T11:41:45.958Z,7.37
2019-05-18T11:44:15.941Z,7.90
2019-05-18T11:46:44.388Z,6.70
2019-05-18T11:49:12.850Z,7.40
2019-05-18T11:51:41.326Z,6.00
2019-05-18T11:54:09.778Z,6.23
2019-05-18T11:56:38.280Z,7.07
2019-05-18T11:59:06.785Z,7.40
2019-05-18T12:01:35.277Z,5.30
2019-05-18T12:04:03.816Z,5.87
2019-05-18T12:06:32.376Z,5.23
2019-05-18T12:09:00.841Z,5.57
2019-05-18T12:11:29.300Z,6.10
2019-05-18T12:13:57.702Z,7.00
2019-05-18T12:16:26.238Z,5.80
2019-05-18T12:18:57.543Z,5.97
2019-05-18T12:21:24.844Z,6.37
2019-05-18T12:23:53.327Z,5.00
2019-05-18T12:26:24.439Z,5.77
2019-05-18T12:28:52.843Z,4.80
2019-05-18T12:31:21.285Z,5.77
2019-05-18T12:33:49.707Z,5.70
2019-05-18T12:36:18.178Z,4.40
2019-05-18T12:38:46.590Z,4.47
2019-05-18T12:41:16.676Z,6.60
2019-05-18T12:43:45.112Z,5.10
2019-05-18T12:46:13.609Z,5.90
2019-05-18T12:48:42.050Z,4.90
2019-05-18T12:51:10.548Z,5.63
2019-05-18T12:53:39.033Z,5.20
2019-05-18T12:56:08.283Z,5.70
2019-05-18T12:58:37.728Z,6.07
2019-05-18T13:01:08.026Z,7.13
2019-05-18T13:03:38.124Z,6.07
2019-05-18T13:06:07.632Z,5.57
2019-05-18T13:08:36.033Z,5.93
2019-05-18T13:11:04.724Z,5.40
2019-05-18T13:13:33.173Z,4.43
2019-05-18T13:16:01.611Z,5.63
2019-05-18T13:18:30.121Z,3.70
2019-05-18T13:20:58.626Z,2.97
2019-05-18T13:23:27.076Z,2.60
2019-05-18T13:25:55.584Z,2.40
2019-05-18T13:28:24.042Z,10.30
2019-05-18T13:30:52.512Z,2.40
2019-05-18T13:33:20.955Z,3.80
2019-05-18T13:35:49.448Z,2.37
2019-05-18T13:38:17.901Z,2.83
2019-05-18T13:40:46.322Z,2.50
2019-05-18T13:43:14.778Z,2.50
2019-05-18T13:45:43.354Z,2.37
2019-05-18T13:48:11.769Z,2.50
2019-05-18T13:50:40.279Z,4.17
2019-05-18T13:53:08.728Z,5.33
2019-05-18T13:55:37.145Z,4.23
2019-05-18T13:58:05.712Z,4.10
2019-05-18T14:00:34.149Z,3.63
2019-05-18T14:03:14.875Z,4.17
2019-05-18T14:05:43.421Z,4.40
2019-05-18T14:08:15.643Z,2.83
2019-05-18T14:10:42.922Z,6.77
2019-05-18T14:13:11.375Z,4.30
2019-05-18T14:15:39.797Z,6.63
2019-05-18T14:18:08.352Z,3.73
2019-05-18T14:20:36.779Z,5.70
2019-05-18T14:23:05.231Z,4.97
2019-05-18T14:25:33.628Z,5.50
2019-05-18T14:28:02.095Z,4.97
2019-05-18T14:30:30.630Z,4.80
2019-05-18T14:32:59.126Z,5.40
2019-05-18T14:35:27.668Z,4.63
2019-05-18T14:37:56.125Z,8.40
2019-05-18T14:40:24.648Z,5.70
2019-05-18T14:42:53.054Z,6.00
2019-05-18T14:45:21.637Z,4.77
2019-05-18T14:47:50.213Z,3.53
2019-05-18T14:50:19.300Z,5.47
2019-05-18T14:52:47.748Z,6.10
2019-05-18T14:55:16.350Z,5.83
2019-05-18T14:57:44.804Z,4.00
2019-05-18T15:00:14.059Z,4.50
2019-05-18T15:02:42.527Z,3.97
2019-05-18T15:05:11.310Z,4.43
2019-05-18T15:07:39.819Z,5.63
2019-05-18T15:10:09.128Z,4.00
2019-05-18T15:12:41.214Z,3.07
2019-05-18T15:15:12.909Z,3.43
2019-05-18T15:17:41.403Z,2.97
2019-05-18T15:20:10.383Z,3.63
2019-05-18T15:22:39.080Z,4.20
2019-05-18T15:25:07.959Z,3.73
2019-05-18T15:27:36.621Z,2.57
2019-05-18T15:30:06.802Z,3.47
2019-05-18T15:32:35.225Z,3.40
2019-05-18T15:35:04.934Z,3.23
2019-05-18T15:37:33.396Z,3.70
2019-05-18T15:40:01.819Z,4.30
2019-05-18T15:42:31.906Z,4.27
2019-05-18T15:45:00.352Z,3.40
2019-05-18T15:47:28.798Z,3.10
2019-05-18T15:49:57.292Z,3.93
2019-05-18T15:52:25.763Z,4.43
2019-05-18T15:54:54.207Z,2.97
2019-05-18T15:57:22.710Z,4.40
2019-05-18T15:59:51.159Z,3.40
2019-05-18T16:02:19.666Z,4.70
2019-05-18T16:04:48.088Z,4.67
2019-05-18T16:07:16.595Z,4.00
2019-05-18T16:09:45.132Z,4.93
2019-05-18T16:12:13.650Z,4.13
2019-05-18T16:14:42.053Z,3.80
2019-05-18T16:17:10.529Z,4.73
2019-05-18T16:19:38.950Z,5.83
2019-05-18T16:22:07.495Z,4.33
2019-05-18T16:24:35.980Z,5.57
2019-05-18T16:27:04.606Z,4.50
2019-05-18T16:29:33.191Z,4.93
2019-05-18T16:32:01.727Z,5.20
2019-05-18T16:34:30.187Z,6.50
2019-05-18T16:37:00.729Z,3.17
2019-05-18T16:39:28.910Z,5.70
2019-05-18T16:41:57.376Z,4.37
2019-05-18T16:44:25.996Z,3.50
2019-05-18T16:46:54.502Z,3.50
2019-05-18T16:49:22.949Z,3.53
2019-05-18T16:51:51.369Z,3.20
2019-05-18T16:54:19.933Z,2.90
2019-05-18T16:56:48.404Z,3.33
2019-05-18T16:59:16.928Z,3.80
2019-05-18T17:01:45.524Z,3.03
2019-05-18T17:04:14.036Z,3.43
2019-05-18T17:06:42.504Z,3.00
2019-05-18T17:09:10.969Z,3.20
2019-05-18T17:11:39.467Z,2.80
2019-05-18T17:14:07.992Z,3.40
2019-05-18T17:16:36.500Z,2.53
2019-05-18T17:19:04.933Z,2.80
2019-05-18T17:21:33.354Z,2.53
2019-05-18T17:24:01.955Z,2.60
2019-05-18T17:26:30.469Z,2.70
2019-05-18T17:28:59.030Z,2.00
2019-05-18T17:31:27.562Z,5.10
2019-05-18T17:33:56.099Z,2.83
2019-05-18T17:36:24.612Z,3.07
2019-05-18T17:38:53.087Z,2.27
2019-05-18T17:41:21.561Z,2.37
2019-05-18T17:43:50.055Z,2.70
2019-05-18T17:46:18.546Z,2.67
2019-05-18T17:48:47.063Z,2.27
2019-05-18T17:51:15.572Z,3.27
2019-05-18T17:53:44.049Z,3.77
2019-05-18T17:56:12.534Z,3.23
2019-05-18T17:58:40.966Z,2.67
2019-05-18T18:01:09.495Z,2.97
2019-05-18T18:03:37.997Z,4.60
2019-05-18T18:06:06.452Z,2.77
2019-05-18T18:08:34.846Z,3.57
2019-05-18T18:11:03.308Z,3.10
2019-05-18T18:13:31.808Z,6.20
2019-05-18T18:16:00.280Z,15.50
2019-05-18T18:18:29.308Z,11.10
2019-05-18T18:20:57.825Z,7.00
2019-05-18T18:23:26.313Z,4.67
2019-05-18T18:25:54.827Z,5.27
2019-05-18T18:28:23.330Z,5.07
2019-05-18T18:30:51.804Z,4.77
2019-05-18T18:33:20.308Z,4.07
2019-05-18T18:35:48.768Z,3.60
2019-05-18T18:38:17.333Z,4.37
2019-05-18T18:40:45.940Z,3.57
2019-05-18T18:43:14.412Z,6.00
2019-05-18T18:45:43.591Z,4.43
2019-05-18T18:48:12.122Z,3.37
2019-05-18T18:50:40.553Z,4.27
2019-05-18T18:53:09.052Z,4.53
2019-05-18T18:55:37.500Z,4.70
2019-05-18T18:58:06.037Z,4.23
2019-05-18T19:00:34.538Z,4.93
2019-05-18T19:03:03.057Z,4.23
2019-05-18T19:05:31.485Z,5.33
2019-05-18T19:07:59.937Z,7.00
2019-05-18T19:10:28.356Z,7.50
2019-05-18T19:12:56.791Z,7.50
2019-05-18T19:15:25.226Z,7.80
2019-05-18T19:17:53.645Z,6.60
2019-05-18T19:20:22.225Z,7.60
2019-05-18T19:22:50.670Z,7.40
2019-05-18T19:25:19.258Z,7.70
2019-05-18T19:27:55.035Z,6.47
2019-05-18T19:30:17.906Z,6.70
2019-05-18T19:32:46.367Z,7.77
2019-05-18T19:35:15.046Z,6.93
2019-05-18T19:37:43.520Z,5.70
2019-05-18T19:40:12.512Z,6.93
2019-05-18T19:42:40.965Z,6.20
2019-05-18T19:45:10.161Z,5.60
2019-05-18T19:47:38.737Z,5.60
2019-05-18T19:50:07.591Z,6.97
2019-05-18T19:52:36.138Z,6.80
2019-05-18T19:55:06.419Z,6.03
2019-05-18T19:57:35.007Z,5.60
2019-05-18T20:00:07.159Z,7.07
2019-05-18T20:02:35.641Z,7.80
2019-05-18T20:05:08.433Z,6.63
2019-05-18T20:07:36.237Z,6.67
2019-05-18T20:10:08.520Z,7.53
2019-05-18T20:12:37.052Z,7.30
2019-05-18T20:15:09.732Z,6.33
2019-05-18T20:17:38.471Z,6.30
2019-05-18T20:20:10.133Z,6.73
2019-05-18T20:22:38.857Z,5.90
2019-05-18T20:25:07.548Z,6.20
2019-05-18T20:27:36.184Z,5.07
2019-05-18T20:30:09.205Z,5.13
2019-05-18T20:32:37.656Z,4.97
2019-05-18T20:35:06.410Z,4.43
2019-05-18T20:37:34.844Z,3.93
2019-05-18T20:40:03.733Z,4.03
2019-05-18T20:42:32.160Z,3.50
2019-05-18T20:45:00.623Z,3.20
2019-05-18T20:47:29.201Z,4.47
2019-05-18T20:49:57.732Z,3.77
2019-05-18T20:52:26.225Z,3.30
2019-05-18T20:54:54.712Z,3.80
2019-05-18T20:57:23.140Z,3.60
2019-05-18T20:59:51.612Z,4.47
2019-05-18T21:02:20.211Z,4.47
2019-05-18T21:04:48.726Z,3.87
2019-05-18T21:07:17.233Z,3.40
2019-05-18T21:09:45.649Z,3.60
2019-05-18T21:12:14.096Z,2.80
2019-05-18T21:14:42.585Z,3.00
2019-05-18T21:17:11.045Z,2.73
2019-05-18T21:19:39.531Z,3.13
2019-05-18T21:22:08.047Z,3.10
2019-05-18T21:24:36.486Z,3.20
2019-05-18T21:27:05.006Z,3.33
2019-05-18T21:29:33.447Z,4.20
2019-05-18T21:32:01.982Z,4.60
2019-05-18T21:34:30.461Z,5.00
2019-05-18T21:36:58.994Z,5.33
2019-05-18T21:39:27.453Z,3.93
2019-05-18T21:41:55.888Z,4.70
2019-05-18T21:44:24.316Z,4.97
2019-05-18T21:46:52.749Z,4.50
2019-05-18T21:49:21.269Z,5.27
2019-05-18T21:51:49.767Z,4.80
2019-05-18T21:54:18.186Z,5.27
2019-05-18T21:56:46.635Z,4.43
2019-05-18T21:59:15.071Z,5.50
2019-05-18T22:01:43.627Z,6.00
2019-05-18T22:04:12.189Z,6.20
2019-05-18T22:06:40.962Z,5.73
2019-05-18T22:09:09.449Z,6.43
2019-05-18T22:11:37.953Z,6.33
2019-05-18T22:14:07.124Z,5.13
2019-05-18T22:16:35.554Z,6.30
2019-05-18T22:19:04.045Z,6.07
2019-05-18T22:21:32.661Z,6.37
2019-05-18T22:24:01.195Z,6.37
2019-05-18T22:26:29.754Z,6.77
2019-05-18T22:28:58.183Z,5.87
2019-05-18T22:31:26.593Z,6.17
2019-05-18T22:33:55.085Z,8.50
2019-05-18T22:36:23.531Z,6.50
2019-05-18T22:38:52.007Z,6.63
2019-05-18T22:41:20.562Z,6.07
2019-05-18T22:43:49.016Z,7.03
2019-05-18T22:46:17.522Z,5.80
2019-05-18T22:48:45.946Z,5.97
2019-05-18T22:51:14.405Z,6.57
2019-05-18T22:53:42.833Z,7.17
2019-05-18T22:56:11.292Z,6.17
2019-05-18T22:58:39.737Z,5.90
2019-05-18T23:01:08.202Z,6.07
2019-05-18T23:03:36.780Z,6.80
2019-05-18T23:06:05.198Z,6.43
2019-05-18T23:08:33.658Z,4.80
2019-05-18T23:11:02.067Z,5.10
2019-05-18T23:13:30.518Z,5.23
2019-05-18T23:15:58.974Z,5.67
2019-05-18T23:18:27.415Z,5.40
2019-05-18T23:20:55.847Z,5.47
2019-05-18T23:23:24.280Z,6.20
2019-05-18T23:25:52.769Z,5.80
2019-05-18T23:28:21.216Z,4.90
2019-05-18T23:30:49.761Z,5.93
2019-05-18T23:33:18.267Z,5.30
2019-05-18T23:35:46.684Z,5.30
2019-05-18T23:38:15.113Z,4.43
2019-05-18T23:40:43.545Z,4.47
2019-05-18T23:43:11.966Z,6.90
2019-05-18T23:45:40.480Z,5.63
2019-05-18T23:48:08.908Z,4.87
2019-05-18T23:50:37.409Z,4.73
2019-05-18T23:53:05.901Z,4.73
2019-05-18T23:55:34.829Z,4.80
2019-05-18T23:58:05.762Z,5.00
